»·PEaware :: N509SP KBFL-KSBA

N509SP :: KBFL-KSBA

FLIGHT INFORMATION

Flight Status: Arrived
Operator: Privately registered:
United States
More flights under this callsign
Pilot: Tim L. (19701)
Aircraft: Unknown
(SF50)
More flights by this aircraft type
Origin: KBFL Meadows
United States
Destination: KSBA Santa Barbara Mun
United States
More flights between these airports :: More routes between these airports
Route:
File this flight plan on PilotEdge
Remarks:
Altitude:
(Current/Filed)
8,500ft
Speed:
(Current/Filed)
200kts
Departed: 26-Aug-18 02:39 PM
Arrived: 26-Aug-18 03:18 PM
Distance/Time
Traveled:
72nm/0:39
Distance/Time
To Go:
Arrived

Flight Plot

Page will automatically refresh every two minutes.


Map Options




Map Legend


Flown Route
Filed Route
Departure Airport
Arrival Airport
Navaid (VOR, NDB)
Fix

Horizontal Profiles

Position Reports

Time Latitude Longitude Heading Altitude Ground
Speed
26-Aug-18 14:26 35.429374 -119.046097 226 499ft 0kts
26-Aug-18 14:27 35.429374 -119.046097 226 499ft 0kts
26-Aug-18 14:28 35.429374 -119.046097 226 499ft 0kts
26-Aug-18 14:29 35.429374 -119.046097 226 499ft 0kts
26-Aug-18 14:30 35.429374 -119.046097 226 499ft 0kts
26-Aug-18 14:31 35.429374 -119.046097 226 499ft 0kts
26-Aug-18 14:32 35.429374 -119.046097 226 499ft 0kts
26-Aug-18 14:33 35.429374 -119.046097 226 499ft 0kts
26-Aug-18 14:34 35.429374 -119.046097 226 499ft 0kts
26-Aug-18 14:35 35.429293 -119.046201 226 499ft 3kts
26-Aug-18 14:36 35.426899 -119.045575 136 499ft 16kts
26-Aug-18 14:37 35.425710 -119.044782 225 499ft 0kts
26-Aug-18 14:38 35.425710 -119.044782 225 499ft 0kts
26-Aug-18 14:39 35.425710 -119.044782 225 499ft 0kts
26-Aug-18 14:40 35.426706 -119.047593 315 499ft 57kts
26-Aug-18 14:41 35.446535 -119.073629 277 2084ft 133kts
26-Aug-18 14:42 35.416198 -119.100747 201 4988ft 151kts
26-Aug-18 14:43 35.378236 -119.120357 210 7573ft 163kts
26-Aug-18 14:44 35.332380 -119.151182 212 8530ft 251kts
26-Aug-18 14:45 35.264869 -119.201084 213 8508ft 307kts
26-Aug-18 14:46 35.192596 -119.255911 213 8503ft 321kts
26-Aug-18 14:47 35.124385 -119.307767 214 8486ft 263kts
26-Aug-18 14:48 35.065648 -119.352247 214 8495ft 241kts
26-Aug-18 14:49 35.009836 -119.394568 214 8429ft 236kts
26-Aug-18 14:50 34.955180 -119.436048 214 8447ft 232kts
26-Aug-18 14:51 34.901036 -119.476976 214 8473ft 230kts
26-Aug-18 14:52 34.857457 -119.509705 214 8487ft 210kts
26-Aug-18 14:53 34.809525 -119.545743 215 8498ft 205kts
26-Aug-18 14:54 34.760691 -119.582744 215 8498ft 220kts
26-Aug-18 14:55 34.712508 -119.618806 215 8484ft 182kts
26-Aug-18 14:56 34.673572 -119.648039 216 8498ft 158kts
26-Aug-18 14:57 34.637755 -119.675032 215 8503ft 169kts
26-Aug-18 14:58 34.597772 -119.704992 215 8502ft 175kts
26-Aug-18 14:59 34.556288 -119.735998 215 8501ft 178kts
26-Aug-18 15:00 34.524769 -119.779564 231 8501ft 176kts
26-Aug-18 15:01 34.507088 -119.832297 282 8073ft 191kts
26-Aug-18 15:02 34.519564 -119.894992 282 8093ft 195kts
26-Aug-18 15:03 34.532481 -119.960420 282 8098ft 212kts
26-Aug-18 15:04 34.545256 -120.026395 282 8080ft 212kts
26-Aug-18 15:05 34.530814 -120.090590 250 7775ft 202kts
26-Aug-18 15:06 34.502820 -120.147986 193 6950ft 213kts
26-Aug-18 15:07 34.447171 -120.160125 194 6147ft 191kts
26-Aug-18 15:08 34.408176 -120.193370 250 5278ft 163kts
26-Aug-18 15:09 34.386579 -120.224091 152 4479ft 168kts
26-Aug-18 15:10 34.375194 -120.169290 97 3706ft 177kts
26-Aug-18 15:11 34.369730 -120.106939 97 2952ft 201kts
26-Aug-18 15:12 34.364217 -120.042403 97 2146ft 188kts
26-Aug-18 15:13 34.358839 -119.977748 97 2030ft 201kts
26-Aug-18 15:14 34.370013 -119.913970 68 1965ft 212kts
26-Aug-18 15:15 34.390962 -119.847000 69 1963ft 214kts
26-Aug-18 15:16 34.409524 -119.787703 67 2010ft 157kts
26-Aug-18 15:17 34.427949 -119.799504 275 1248ft 134kts
26-Aug-18 15:18 34.427724 -119.840957 267 14ft 98kts
26-Aug-18 15:19 34.426819 -119.851817 170 14ft 0kts
26-Aug-18 15:20 34.426483 -119.851519 117 14ft 11kts
26-Aug-18 15:21 34.426536 -119.846367 88 14ft 12kts
26-Aug-18 15:22 34.426634 -119.841727 87 14ft 14kts
26-Aug-18 15:23 34.426677 -119.839679 88 14ft 0kts
26-Aug-18 15:24 34.426677 -119.839679 88 14ft 0kts
26-Aug-18 15:25 34.426677 -119.839679 88 14ft 0kts
26-Aug-18 15:26 34.426677 -119.839679 88 14ft 0kts
26-Aug-18 15:27 34.426688 -119.838975 88 14ft 12kts
26-Aug-18 15:28 34.426090 -119.837309 86 14ft 0kts

Navigation Log

Ident Type
1. KBFL Airport
2. KSBA Airport